sensor_id;sensor_type;location;lat;lon;timestamp;temperature;humidity
71396;DHT22;59888;55.814;37.132;2023-05-16T00:00:43;11.93;40.58
71396;DHT22;59888;55.814;37.132;2023-05-16T00:03:10;11.91;40.54
71396;DHT22;59888;55.814;37.132;2023-05-16T00:05:37;11.78;40.59
71396;DHT22;59888;55.814;37.132;2023-05-16T00:08:04;11.69;40.71
71396;DHT22;59888;55.814;37.132;2023-05-16T00:10:30;11.61;40.97
71396;DHT22;59888;55.814;37.132;2023-05-16T00:12:56;11.57;41.16
71396;DHT22;59888;55.814;37.132;2023-05-16T00:15:22;11.52;41.14
71396;DHT22;59888;55.814;37.132;2023-05-16T00:17:49;11.48;41.16
71396;DHT22;59888;55.814;37.132;2023-05-16T00:20:16;11.46;41.24
71396;DHT22;59888;55.814;37.132;2023-05-16T00:22:47;11.44;41.26
71396;DHT22;59888;55.814;37.132;2023-05-16T00:25:13;11.41;41.36
71396;DHT22;59888;55.814;37.132;2023-05-16T00:27:39;11.40;41.48
71396;DHT22;59888;55.814;37.132;2023-05-16T00:30:05;11.38;41.42
71396;DHT22;59888;55.814;37.132;2023-05-16T00:32:35;11.39;41.65
71396;DHT22;59888;55.814;37.132;2023-05-16T00:35:01;11.41;41.46
71396;DHT22;59888;55.814;37.132;2023-05-16T00:37:31;11.38;41.46
71396;DHT22;59888;55.814;37.132;2023-05-16T00:39:57;11.32;41.49
71396;DHT22;59888;55.814;37.132;2023-05-16T00:42:23;11.27;41.58
71396;DHT22;59888;55.814;37.132;2023-05-16T00:44:49;11.22;41.69
71396;DHT22;59888;55.814;37.132;2023-05-16T00:47:15;11.19;41.82
71396;DHT22;59888;55.814;37.132;2023-05-16T00:49:41;11.23;41.90
71396;DHT22;59888;55.814;37.132;2023-05-16T00:52:08;11.22;41.97
71396;DHT22;59888;55.814;37.132;2023-05-16T00:54:34;11.18;41.80
71396;DHT22;59888;55.814;37.132;2023-05-16T00:57:00;11.17;41.78
71396;DHT22;59888;55.814;37.132;2023-05-16T00:59:27;11.01;42.65
71396;DHT22;59888;55.814;37.132;2023-05-16T01:01:52;10.93;42.55
71396;DHT22;59888;55.814;37.132;2023-05-16T01:04:19;10.89;42.62
71396;DHT22;59888;55.814;37.132;2023-05-16T01:06:45;10.85;42.42
71396;DHT22;59888;55.814;37.132;2023-05-16T01:09:12;10.81;42.69
71396;DHT22;59888;55.814;37.132;2023-05-16T01:14:48;10.70;44.56
71396;DHT22;59888;55.814;37.132;2023-05-16T01:19:58;10.58;44.37
71396;DHT22;59888;55.814;37.132;2023-05-16T01:22:28;10.55;43.34
71396;DHT22;59888;55.814;37.132;2023-05-16T01:27:52;10.54;45.30
71396;DHT22;59888;55.814;37.132;2023-05-16T01:30:21;10.56;43.08
71396;DHT22;59888;55.814;37.132;2023-05-16T01:32:47;10.59;43.07
71396;DHT22;59888;55.814;37.132;2023-05-16T01:35:14;10.60;43.22
71396;DHT22;59888;55.814;37.132;2023-05-16T01:37:48;10.64;43.78
71396;DHT22;59888;55.814;37.132;2023-05-16T01:41:11;10.66;44.09
71396;DHT22;59888;55.814;37.132;2023-05-16T01:43:41;10.75;43.25
71396;DHT22;59888;55.814;37.132;2023-05-16T01:46:15;10.81;43.24
71396;DHT22;59888;55.814;37.132;2023-05-16T01:49:24;10.83;44.12
71396;DHT22;59888;55.814;37.132;2023-05-16T01:51:57;10.90;42.95
71396;DHT22;59888;55.814;37.132;2023-05-16T01:54:26;10.97;42.38
71396;DHT22;59888;55.814;37.132;2023-05-16T01:56:56;10.95;42.40
71396;DHT22;59888;55.814;37.132;2023-05-16T01:59:23;10.89;42.32
71396;DHT22;59888;55.814;37.132;2023-05-16T02:01:53;10.81;45.17
71396;DHT22;59888;55.814;37.132;2023-05-16T02:04:21;10.65;45.23
71396;DHT22;59888;55.814;37.132;2023-05-16T02:06:52;10.52;46.02
71396;DHT22;59888;55.814;37.132;2023-05-16T02:09:18;10.43;46.08
71396;DHT22;59888;55.814;37.132;2023-05-16T02:11:44;10.37;44.45
71396;DHT22;59888;55.814;37.132;2023-05-16T02:14:11;10.42;44.45
71396;DHT22;59888;55.814;37.132;2023-05-16T02:16:38;10.54;44.23
71396;DHT22;59888;55.814;37.132;2023-05-16T02:19:04;10.65;45.15
71396;DHT22;59888;55.814;37.132;2023-05-16T02:21:51;10.56;45.60
71396;DHT22;59888;55.814;37.132;2023-05-16T02:24:17;10.49;45.57
71396;DHT22;59888;55.814;37.132;2023-05-16T02:26:43;10.38;45.70
71396;DHT22;59888;55.814;37.132;2023-05-16T02:29:09;10.40;44.91
71396;DHT22;59888;55.814;37.132;2023-05-16T02:31:36;10.48;44.97
71396;DHT22;59888;55.814;37.132;2023-05-16T02:34:02;10.56;44.79
71396;DHT22;59888;55.814;37.132;2023-05-16T02:36:28;10.63;44.95
71396;DHT22;59888;55.814;37.132;2023-05-16T02:38:54;10.74;44.71
71396;DHT22;59888;55.814;37.132;2023-05-16T02:41:22;10.82;45.27
71396;DHT22;59888;55.814;37.132;2023-05-16T02:43:49;10.90;45.12
71396;DHT22;59888;55.814;37.132;2023-05-16T02:48:50;11.14;44.61
71396;DHT22;59888;55.814;37.132;2023-05-16T02:51:19;11.27;44.81
71396;DHT22;59888;55.814;37.132;2023-05-16T02:53:45;11.36;44.45
71396;DHT22;59888;55.814;37.132;2023-05-16T02:56:11;11.47;44.32
71396;DHT22;59888;55.814;37.132;2023-05-16T02:58:39;11.60;43.94
71396;DHT22;59888;55.814;37.132;2023-05-16T03:01:06;11.73;43.53
71396;DHT22;59888;55.814;37.132;2023-05-16T03:03:33;11.79;43.52
71396;DHT22;59888;55.814;37.132;2023-05-16T03:06:01;11.91;43.24
71396;DHT22;59888;55.814;37.132;2023-05-16T03:08:27;12.06;43.01
71396;DHT22;59888;55.814;37.132;2023-05-16T03:10:56;12.18;42.88
71396;DHT22;59888;55.814;37.132;2023-05-16T03:13:22;12.32;42.75
71396;DHT22;59888;55.814;37.132;2023-05-16T03:15:48;12.44;42.54
71396;DHT22;59888;55.814;37.132;2023-05-16T03:18:14;12.58;42.44
71396;DHT22;59888;55.814;37.132;2023-05-16T03:20:42;12.75;42.30
71396;DHT22;59888;55.814;37.132;2023-05-16T03:23:08;12.90;41.90
71396;DHT22;59888;55.814;37.132;2023-05-16T03:25:36;13.07;41.95
71396;DHT22;59888;55.814;37.132;2023-05-16T03:28:04;13.22;41.89
71396;DHT22;59888;55.814;37.132;2023-05-16T03:30:31;13.33;41.60
71396;DHT22;59888;55.814;37.132;2023-05-16T03:32:57;13.43;42.07
71396;DHT22;59888;55.814;37.132;2023-05-16T03:35:32;13.51;41.50
71396;DHT22;59888;55.814;37.132;2023-05-16T03:37:59;13.66;41.33
71396;DHT22;59888;55.814;37.132;2023-05-16T03:40:25;13.81;41.47
71396;DHT22;59888;55.814;37.132;2023-05-16T03:42:51;13.96;41.33
71396;DHT22;59888;55.814;37.132;2023-05-16T03:45:17;14.13;41.13
71396;DHT22;59888;55.814;37.132;2023-05-16T03:47:43;14.26;40.87
71396;DHT22;59888;55.814;37.132;2023-05-16T03:50:09;14.37;40.68
71396;DHT22;59888;55.814;37.132;2023-05-16T03:52:35;14.54;40.48
71396;DHT22;59888;55.814;37.132;2023-05-16T03:55:01;14.73;40.21
71396;DHT22;59888;55.814;37.132;2023-05-16T03:57:33;14.88;40.00
71396;DHT22;59888;55.814;37.132;2023-05-16T03:59:59;15.03;39.93
71396;DHT22;59888;55.814;37.132;2023-05-16T04:02:25;15.16;39.71
71396;DHT22;59888;55.814;37.132;2023-05-16T04:04:51;15.29;39.62
71396;DHT22;59888;55.814;37.132;2023-05-16T04:07:17;15.43;39.49
71396;DHT22;59888;55.814;37.132;2023-05-16T04:09:43;15.61;39.31
71396;DHT22;59888;55.814;37.132;2023-05-16T04:12:09;15.83;39.02
71396;DHT22;59888;55.814;37.132;2023-05-16T04:14:35;16.00;38.68
71396;DHT22;59888;55.814;37.132;2023-05-16T04:17:01;16.12;38.56
71396;DHT22;59888;55.814;37.132;2023-05-16T04:19:27;16.30;38.37
71396;DHT22;59888;55.814;37.132;2023-05-16T04:21:53;16.46;37.99
71396;DHT22;59888;55.814;37.132;2023-05-16T04:24:19;16.59;37.83
71396;DHT22;59888;55.814;37.132;2023-05-16T04:26:45;16.75;37.54
71396;DHT22;59888;55.814;37.132;2023-05-16T04:29:11;16.90;36.97
71396;DHT22;59888;55.814;37.132;2023-05-16T04:31:39;17.02;37.17
71396;DHT22;59888;55.814;37.132;2023-05-16T04:34:04;17.17;36.99
71396;DHT22;59888;55.814;37.132;2023-05-16T04:36:30;17.28;36.24
71396;DHT22;59888;55.814;37.132;2023-05-16T04:38:57;17.37;35.66
71396;DHT22;59888;55.814;37.132;2023-05-16T04:41:23;17.46;36.05
71396;DHT22;59888;55.814;37.132;2023-05-16T04:43:49;17.50;36.16
71396;DHT22;59888;55.814;37.132;2023-05-16T04:46:16;17.62;36.11
71396;DHT22;59888;55.814;37.132;2023-05-16T04:48:42;17.74;35.89
71396;DHT22;59888;55.814;37.132;2023-05-16T04:51:08;17.76;36.49
71396;DHT22;59888;55.814;37.132;2023-05-16T04:53:34;17.82;36.27
71396;DHT22;59888;55.814;37.132;2023-05-16T04:56:00;17.99;35.56
71396;DHT22;59888;55.814;37.132;2023-05-16T04:58:26;18.14;34.92
71396;DHT22;59888;55.814;37.132;2023-05-16T05:00:52;18.33;34.82
71396;DHT22;59888;55.814;37.132;2023-05-16T05:03:18;18.41;34.50
71396;DHT22;59888;55.814;37.132;2023-05-16T05:05:44;18.51;34.02
71396;DHT22;59888;55.814;37.132;2023-05-16T05:08:10;18.59;33.87
71396;DHT22;59888;55.814;37.132;2023-05-16T05:10:36;18.70;33.30
71396;DHT22;59888;55.814;37.132;2023-05-16T05:13:02;18.81;33.15
71396;DHT22;59888;55.814;37.132;2023-05-16T05:15:29;18.86;32.61
71396;DHT22;59888;55.814;37.132;2023-05-16T05:17:55;18.91;31.90
71396;DHT22;59888;55.814;37.132;2023-05-16T05:20:22;18.94;32.83
71396;DHT22;59888;55.814;37.132;2023-05-16T05:22:48;19.01;32.76
71396;DHT22;59888;55.814;37.132;2023-05-16T05:25:14;19.09;32.41
71396;DHT22;59888;55.814;37.132;2023-05-16T05:27:40;19.26;32.34
71396;DHT22;59888;55.814;37.132;2023-05-16T05:30:06;19.41;32.14
71396;DHT22;59888;55.814;37.132;2023-05-16T05:32:32;19.59;32.05
71396;DHT22;59888;55.814;37.132;2023-05-16T05:34:58;19.73;31.77
71396;DHT22;59888;55.814;37.132;2023-05-16T05:37:25;19.85;31.41
71396;DHT22;59888;55.814;37.132;2023-05-16T05:39:51;19.99;31.19
71396;DHT22;59888;55.814;37.132;2023-05-16T05:42:17;20.06;31.06
71396;DHT22;59888;55.814;37.132;2023-05-16T05:44:43;20.10;30.98
71396;DHT22;59888;55.814;37.132;2023-05-16T05:47:09;20.16;30.65
71396;DHT22;59888;55.814;37.132;2023-05-16T05:49:36;20.25;30.60
71396;DHT22;59888;55.814;37.132;2023-05-16T05:52:02;20.36;30.92
71396;DHT22;59888;55.814;37.132;2023-05-16T05:54:29;20.55;30.70
71396;DHT22;59888;55.814;37.132;2023-05-16T05:56:57;20.65;30.35
71396;DHT22;59888;55.814;37.132;2023-05-16T05:59:23;20.76;29.92
71396;DHT22;59888;55.814;37.132;2023-05-16T06:01:49;20.81;29.22
71396;DHT22;59888;55.814;37.132;2023-05-16T06:04:20;20.87;28.99
71396;DHT22;59888;55.814;37.132;2023-05-16T06:06:46;20.98;28.90
71396;DHT22;59888;55.814;37.132;2023-05-16T06:09:12;21.01;28.09
71396;DHT22;59888;55.814;37.132;2023-05-16T06:11:40;21.01;27.87
71396;DHT22;59888;55.814;37.132;2023-05-16T06:14:06;21.05;27.68
71396;DHT22;59888;55.814;37.132;2023-05-16T06:16:32;21.06;27.61
71396;DHT22;59888;55.814;37.132;2023-05-16T06:18:58;21.08;27.16
71396;DHT22;59888;55.814;37.132;2023-05-16T06:21:27;21.10;26.94
71396;DHT22;59888;55.814;37.132;2023-05-16T06:23:53;21.14;26.94
71396;DHT22;59888;55.814;37.132;2023-05-16T06:26:19;21.25;27.01
71396;DHT22;59888;55.814;37.132;2023-05-16T06:28:47;21.38;26.71
71396;DHT22;59888;55.814;37.132;2023-05-16T06:31:12;21.46;26.36
71396;DHT22;59888;55.814;37.132;2023-05-16T06:33:38;21.60;25.99
71396;DHT22;59888;55.814;37.132;2023-05-16T06:36:04;21.67;26.05
71396;DHT22;59888;55.814;37.132;2023-05-16T06:38:30;21.72;25.65
71396;DHT22;59888;55.814;37.132;2023-05-16T06:40:56;21.82;25.40
71396;DHT22;59888;55.814;37.132;2023-05-16T06:43:22;21.92;25.43
71396;DHT22;59888;55.814;37.132;2023-05-16T06:45:48;21.93;25.29
71396;DHT22;59888;55.814;37.132;2023-05-16T06:48:14;22.02;25.23
71396;DHT22;59888;55.814;37.132;2023-05-16T06:50:40;22.12;25.35
71396;DHT22;59888;55.814;37.132;2023-05-16T06:53:06;22.17;25.02
71396;DHT22;59888;55.814;37.132;2023-05-16T06:55:33;22.19;24.66
71396;DHT22;59888;55.814;37.132;2023-05-16T06:57:59;22.21;24.90
71396;DHT22;59888;55.814;37.132;2023-05-16T07:00:25;22.22;24.93
71396;DHT22;59888;55.814;37.132;2023-05-16T07:02:51;22.16;24.83
71396;DHT22;59888;55.814;37.132;2023-05-16T07:05:18;22.17;24.93
71396;DHT22;59888;55.814;37.132;2023-05-16T07:07:44;22.29;24.94
71396;DHT22;59888;55.814;37.132;2023-05-16T07:10:10;22.34;24.73
71396;DHT22;59888;55.814;37.132;2023-05-16T07:12:40;22.37;24.15
71396;DHT22;59888;55.814;37.132;2023-05-16T07:15:07;22.38;24.30
71396;DHT22;59888;55.814;37.132;2023-05-16T07:17:34;22.38;24.31
71396;DHT22;59888;55.814;37.132;2023-05-16T07:20:00;22.40;24.29
71396;DHT22;59888;55.814;37.132;2023-05-16T07:22:26;22.44;24.15
71396;DHT22;59888;55.814;37.132;2023-05-16T07:24:51;22.54;24.32
71396;DHT22;59888;55.814;37.132;2023-05-16T07:27:22;22.67;24.32
71396;DHT22;59888;55.814;37.132;2023-05-16T07:29:48;22.73;23.97
71396;DHT22;59888;55.814;37.132;2023-05-16T07:32:14;22.78;23.95
71396;DHT22;59888;55.814;37.132;2023-05-16T07:34:41;22.71;23.43
71396;DHT22;59888;55.814;37.132;2023-05-16T07:37:06;22.77;23.81
71396;DHT22;59888;55.814;37.132;2023-05-16T07:39:41;22.79;23.48
71396;DHT22;59888;55.814;37.132;2023-05-16T07:42:07;22.80;22.84
71396;DHT22;59888;55.814;37.132;2023-05-16T07:44:34;22.82;23.44
71396;DHT22;59888;55.814;37.132;2023-05-16T07:47:01;22.87;23.29
71396;DHT22;59888;55.814;37.132;2023-05-16T07:49:27;22.88;23.25
71396;DHT22;59888;55.814;37.132;2023-05-16T07:51:54;22.88;23.17
71396;DHT22;59888;55.814;37.132;2023-05-16T07:54:20;22.83;22.95
71396;DHT22;59888;55.814;37.132;2023-05-16T07:56:46;22.71;22.99
71396;DHT22;59888;55.814;37.132;2023-05-16T07:59:12;22.79;23.13
71396;DHT22;59888;55.814;37.132;2023-05-16T08:01:39;22.85;23.11
71396;DHT22;59888;55.814;37.132;2023-05-16T08:04:05;22.98;23.16
71396;DHT22;59888;55.814;37.132;2023-05-16T08:06:32;23.07;22.70
71396;DHT22;59888;55.814;37.132;2023-05-16T08:08:59;23.08;22.64
71396;DHT22;59888;55.814;37.132;2023-05-16T08:11:25;23.02;22.72
71396;DHT22;59888;55.814;37.132;2023-05-16T08:13:51;23.06;22.18
71396;DHT22;59888;55.814;37.132;2023-05-16T08:16:17;23.10;22.02
71396;DHT22;59888;55.814;37.132;2023-05-16T08:18:43;23.10;22.19
71396;DHT22;59888;55.814;37.132;2023-05-16T08:21:09;23.07;22.08
71396;DHT22;59888;55.814;37.132;2023-05-16T08:23:35;23.07;21.76
71396;DHT22;59888;55.814;37.132;2023-05-16T08:26:01;23.17;21.82
71396;DHT22;59888;55.814;37.132;2023-05-16T08:28:28;23.17;21.56
71396;DHT22;59888;55.814;37.132;2023-05-16T08:30:54;23.12;21.65
71396;DHT22;59888;55.814;37.132;2023-05-16T08:33:21;23.16;21.59
71396;DHT22;59888;55.814;37.132;2023-05-16T08:35:49;23.22;21.91
71396;DHT22;59888;55.814;37.132;2023-05-16T08:38:18;23.30;21.49
71396;DHT22;59888;55.814;37.132;2023-05-16T08:40:45;23.35;21.70
71396;DHT22;59888;55.814;37.132;2023-05-16T08:43:11;23.39;21.36
71396;DHT22;59888;55.814;37.132;2023-05-16T08:45:39;23.43;21.47
71396;DHT22;59888;55.814;37.132;2023-05-16T08:48:06;23.58;21.18
71396;DHT22;59888;55.814;37.132;2023-05-16T08:50:34;23.67;21.22
71396;DHT22;59888;55.814;37.132;2023-05-16T08:53:04;23.73;20.40
71396;DHT22;59888;55.814;37.132;2023-05-16T08:55:32;23.75;21.10
71396;DHT22;59888;55.814;37.132;2023-05-16T08:57:59;23.76;20.66
71396;DHT22;59888;55.814;37.132;2023-05-16T09:00:26;23.76;20.24
71396;DHT22;59888;55.814;37.132;2023-05-16T09:02:52;23.75;20.47
71396;DHT22;59888;55.814;37.132;2023-05-16T09:05:18;23.77;20.60
71396;DHT22;59888;55.814;37.132;2023-05-16T09:07:45;23.86;20.32
71396;DHT22;59888;55.814;37.132;2023-05-16T09:10:11;23.92;20.26
71396;DHT22;59888;55.814;37.132;2023-05-16T09:12:39;23.96;20.15
71396;DHT22;59888;55.814;37.132;2023-05-16T09:15:06;24.02;20.45
71396;DHT22;59888;55.814;37.132;2023-05-16T09:17:42;24.08;19.95
71396;DHT22;59888;55.814;37.132;2023-05-16T09:20:14;24.14;19.71
71396;DHT22;59888;55.814;37.132;2023-05-16T09:25:17;24.08;19.91
71396;DHT22;59888;55.814;37.132;2023-05-16T09:27:45;24.09;19.85
71396;DHT22;59888;55.814;37.132;2023-05-16T09:30:14;24.06;19.84
71396;DHT22;59888;55.814;37.132;2023-05-16T09:32:44;23.96;19.44
71396;DHT22;59888;55.814;37.132;2023-05-16T09:35:14;23.96;19.72
71396;DHT22;59888;55.814;37.132;2023-05-16T09:37:48;23.99;19.77
71396;DHT22;59888;55.814;37.132;2023-05-16T09:40:15;24.04;20.21
71396;DHT22;59888;55.814;37.132;2023-05-16T09:42:42;24.00;18.92
71396;DHT22;59888;55.814;37.132;2023-05-16T09:45:13;23.87;19.52
71396;DHT22;59888;55.814;37.132;2023-05-16T09:47:40;23.90;19.82
71396;DHT22;59888;55.814;37.132;2023-05-16T09:50:15;23.99;19.41
71396;DHT22;59888;55.814;37.132;2023-05-16T09:52:42;24.06;20.02
71396;DHT22;59888;55.814;37.132;2023-05-16T09:55:09;24.06;19.86
71396;DHT22;59888;55.814;37.132;2023-05-16T09:57:37;24.06;19.79
71396;DHT22;59888;55.814;37.132;2023-05-16T10:00:06;24.05;19.53
71396;DHT22;59888;55.814;37.132;2023-05-16T10:02:36;24.17;19.78
71396;DHT22;59888;55.814;37.132;2023-05-16T10:05:03;24.23;19.53
71396;DHT22;59888;55.814;37.132;2023-05-16T10:07:33;24.12;19.73
71396;DHT22;59888;55.814;37.132;2023-05-16T10:10:04;24.00;19.24
71396;DHT22;59888;55.814;37.132;2023-05-16T10:12:32;24.09;19.62
71396;DHT22;59888;55.814;37.132;2023-05-16T10:15:00;24.08;19.79
71396;DHT22;59888;55.814;37.132;2023-05-16T10:17:34;24.16;19.76
71396;DHT22;59888;55.814;37.132;2023-05-16T10:20:05;24.23;18.92
71396;DHT22;59888;55.814;37.132;2023-05-16T10:22:35;24.31;19.23
71396;DHT22;59888;55.814;37.132;2023-05-16T10:27:38;24.41;19.15
71396;DHT22;59888;55.814;37.132;2023-05-16T10:30:05;24.47;19.62
71396;DHT22;59888;55.814;37.132;2023-05-16T10:32:33;24.51;19.57
71396;DHT22;59888;55.814;37.132;2023-05-16T10:34:59;24.56;19.70
71396;DHT22;59888;55.814;37.132;2023-05-16T10:37:31;24.47;19.24
71396;DHT22;59888;55.814;37.132;2023-05-16T10:39:58;24.39;18.44
71396;DHT22;59888;55.814;37.132;2023-05-16T10:42:25;24.39;19.54
71396;DHT22;59888;55.814;37.132;2023-05-16T10:44:54;24.55;19.69
71396;DHT22;59888;55.814;37.132;2023-05-16T10:47:23;24.58;19.73
71396;DHT22;59888;55.814;37.132;2023-05-16T10:49:49;24.55;19.51
71396;DHT22;59888;55.814;37.132;2023-05-16T10:52:15;24.57;19.54
71396;DHT22;59888;55.814;37.132;2023-05-16T10:54:48;24.54;19.68
71396;DHT22;59888;55.814;37.132;2023-05-16T10:57:18;24.68;19.02
71396;DHT22;59888;55.814;37.132;2023-05-16T10:59:47;24.69;19.44
71396;DHT22;59888;55.814;37.132;2023-05-16T11:02:23;24.71;18.75
71396;DHT22;59888;55.814;37.132;2023-05-16T11:04:56;24.75;19.54
71396;DHT22;59888;55.814;37.132;2023-05-16T11:07:25;24.87;19.38
71396;DHT22;59888;55.814;37.132;2023-05-16T11:10:04;24.87;18.99
71396;DHT22;59888;55.814;37.132;2023-05-16T11:12:49;24.84;18.93
71396;DHT22;59888;55.814;37.132;2023-05-16T11:15:30;24.78;19.05
71396;DHT22;59888;55.814;37.132;2023-05-16T11:18:07;24.82;19.04
71396;DHT22;59888;55.814;37.132;2023-05-16T11:20:37;24.83;19.25
71396;DHT22;59888;55.814;37.132;2023-05-16T11:25:44;24.82;19.52
71396;DHT22;59888;55.814;37.132;2023-05-16T11:28:13;24.86;19.24
71396;DHT22;59888;55.814;37.132;2023-05-16T11:30:44;24.93;18.95
71396;DHT22;59888;55.814;37.132;2023-05-16T11:33:11;24.95;19.13
71396;DHT22;59888;55.814;37.132;2023-05-16T11:35:41;24.94;19.56
71396;DHT22;59888;55.814;37.132;2023-05-16T11:38:13;24.94;19.16
71396;DHT22;59888;55.814;37.132;2023-05-16T11:40:42;24.91;18.76
71396;DHT22;59888;55.814;37.132;2023-05-16T11:43:09;24.89;19.15
71396;DHT22;59888;55.814;37.132;2023-05-16T11:45:36;25.00;19.06
71396;DHT22;59888;55.814;37.132;2023-05-16T11:48:02;25.01;19.07
71396;DHT22;59888;55.814;37.132;2023-05-16T11:50:29;25.03;19.18
71396;DHT22;59888;55.814;37.132;2023-05-16T11:52:55;25.19;18.85
71396;DHT22;59888;55.814;37.132;2023-05-16T11:55:28;25.29;18.63
71396;DHT22;59888;55.814;37.132;2023-05-16T11:57:56;25.34;18.73
71396;DHT22;59888;55.814;37.132;2023-05-16T12:00:24;25.42;18.38
71396;DHT22;59888;55.814;37.132;2023-05-16T12:02:53;25.45;18.65
71396;DHT22;59888;55.814;37.132;2023-05-16T12:05:20;25.43;18.28
71396;DHT22;59888;55.814;37.132;2023-05-16T12:07:51;25.36;17.14
71396;DHT22;59888;55.814;37.132;2023-05-16T12:10:21;25.36;18.87
71396;DHT22;59888;55.814;37.132;2023-05-16T12:12:49;25.40;18.54
71396;DHT22;59888;55.814;37.132;2023-05-16T12:15:19;25.38;18.38
71396;DHT22;59888;55.814;37.132;2023-05-16T12:17:46;25.46;18.38
71396;DHT22;59888;55.814;37.132;2023-05-16T12:20:13;25.52;18.51
71396;DHT22;59888;55.814;37.132;2023-05-16T12:22:42;25.53;18.36
71396;DHT22;59888;55.814;37.132;2023-05-16T12:27:49;25.67;17.47
71396;DHT22;59888;55.814;37.132;2023-05-16T12:30:16;25.71;18.35
71396;DHT22;59888;55.814;37.132;2023-05-16T12:32:43;25.87;18.35
71396;DHT22;59888;55.814;37.132;2023-05-16T12:35:10;26.09;18.49
71396;DHT22;59888;55.814;37.132;2023-05-16T12:37:37;26.19;18.42
71396;DHT22;59888;55.814;37.132;2023-05-16T12:40:04;26.33;17.19
71396;DHT22;59888;55.814;37.132;2023-05-16T12:42:31;26.43;18.16
71396;DHT22;59888;55.814;37.132;2023-05-16T12:44:57;26.72;17.59
71396;DHT22;59888;55.814;37.132;2023-05-16T12:47:34;27.09;17.99
71396;DHT22;59888;55.814;37.132;2023-05-16T12:50:01;27.90;18.55
71396;DHT22;59888;55.814;37.132;2023-05-16T12:52:29;29.16;17.53
71396;DHT22;59888;55.814;37.132;2023-05-16T12:54:55;30.84;15.60
71396;DHT22;59888;55.814;37.132;2023-05-16T12:57:21;32.79;14.88
71396;DHT22;59888;55.814;37.132;2023-05-16T12:59:46;35.29;14.13
71396;DHT22;59888;55.814;37.132;2023-05-16T13:02:12;37.44;13.64
71396;DHT22;59888;55.814;37.132;2023-05-16T13:04:44;38.74;12.19
71396;DHT22;59888;55.814;37.132;2023-05-16T13:07:13;40.16;11.88
71396;DHT22;59888;55.814;37.132;2023-05-16T13:09:38;41.60;10.75
71396;DHT22;59888;55.814;37.132;2023-05-16T13:12:06;42.49;10.51
71396;DHT22;59888;55.814;37.132;2023-05-16T13:14:32;42.90;9.34
71396;DHT22;59888;55.814;37.132;2023-05-16T13:16:58;43.37;9.05
71396;DHT22;59888;55.814;37.132;2023-05-16T13:19:24;44.00;10.39
71396;DHT22;59888;55.814;37.132;2023-05-16T13:21:50;44.58;9.50
71396;DHT22;59888;55.814;37.132;2023-05-16T13:24:16;45.26;9.25
71396;DHT22;59888;55.814;37.132;2023-05-16T13:26:42;45.99;8.94
71396;DHT22;59888;55.814;37.132;2023-05-16T13:29:08;46.23;8.99
71396;DHT22;59888;55.814;37.132;2023-05-16T13:31:35;47.10;8.69
71396;DHT22;59888;55.814;37.132;2023-05-16T13:34:01;47.77;8.43
71396;DHT22;59888;55.814;37.132;2023-05-16T13:36:27;0.00;0.00
71396;DHT22;59888;55.814;37.132;2023-05-16T13:38:53;48.69;7.44
71396;DHT22;59888;55.814;37.132;2023-05-16T13:41:19;48.71;8.07
71396;DHT22;59888;55.814;37.132;2023-05-16T13:43:45;49.01;7.76
71396;DHT22;59888;55.814;37.132;2023-05-16T13:46:11;49.38;7.50
71396;DHT22;59888;55.814;37.132;2023-05-16T13:48:37;49.27;7.19
71396;DHT22;59888;55.814;37.132;2023-05-16T13:51:02;49.17;7.75
71396;DHT22;59888;55.814;37.132;2023-05-16T13:53:29;48.98;7.42
71396;DHT22;59888;55.814;37.132;2023-05-16T13:55:55;48.57;7.25
71396;DHT22;59888;55.814;37.132;2023-05-16T13:58:20;48.80;7.38
71396;DHT22;59888;55.814;37.132;2023-05-16T14:00:47;49.16;7.41
71396;DHT22;59888;55.814;37.132;2023-05-16T14:03:12;49.24;7.18
71396;DHT22;59888;55.814;37.132;2023-05-16T14:05:39;49.34;6.52
71396;DHT22;59888;55.814;37.132;2023-05-16T14:08:05;49.06;6.35
71396;DHT22;59888;55.814;37.132;2023-05-16T14:10:31;49.14;6.17
71396;DHT22;59888;55.814;37.132;2023-05-16T14:12:57;49.10;6.43
71396;DHT22;59888;55.814;37.132;2023-05-16T14:15:23;49.12;6.36
71396;DHT22;59888;55.814;37.132;2023-05-16T14:17:49;49.54;6.47
71396;DHT22;59888;55.814;37.132;2023-05-16T14:20:14;49.45;6.05
71396;DHT22;59888;55.814;37.132;2023-05-16T14:22:41;49.39;6.34
71396;DHT22;59888;55.814;37.132;2023-05-16T14:25:07;48.99;6.17
71396;DHT22;59888;55.814;37.132;2023-05-16T14:27:33;48.97;5.89
71396;DHT22;59888;55.814;37.132;2023-05-16T14:29:59;48.90;5.78
71396;DHT22;59888;55.814;37.132;2023-05-16T14:32:25;48.54;5.02
71396;DHT22;59888;55.814;37.132;2023-05-16T14:34:51;48.54;5.94
71396;DHT22;59888;55.814;37.132;2023-05-16T14:37:17;48.10;5.59
71396;DHT22;59888;55.814;37.132;2023-05-16T14:39:45;47.40;6.19
71396;DHT22;59888;55.814;37.132;2023-05-16T14:42:14;46.80;6.09
71396;DHT22;59888;55.814;37.132;2023-05-16T14:44:40;46.17;5.76
71396;DHT22;59888;55.814;37.132;2023-05-16T14:47:06;45.62;5.92
71396;DHT22;59888;55.814;37.132;2023-05-16T14:49:31;45.20;6.21
71396;DHT22;59888;55.814;37.132;2023-05-16T14:51:57;45.27;6.45
71396;DHT22;59888;55.814;37.132;2023-05-16T14:54:23;45.63;6.12
71396;DHT22;59888;55.814;37.132;2023-05-16T14:56:49;46.10;5.67
71396;DHT22;59888;55.814;37.132;2023-05-16T14:59:16;46.38;5.53
71396;DHT22;59888;55.814;37.132;2023-05-16T15:01:42;46.76;5.67
71396;DHT22;59888;55.814;37.132;2023-05-16T15:04:08;46.63;5.28
71396;DHT22;59888;55.814;37.132;2023-05-16T15:06:34;46.10;5.04
71396;DHT22;59888;55.814;37.132;2023-05-16T15:09:00;45.58;5.28
71396;DHT22;59888;55.814;37.132;2023-05-16T15:11:27;44.94;5.18
71396;DHT22;59888;55.814;37.132;2023-05-16T15:13:53;43.80;5.65
71396;DHT22;59888;55.814;37.132;2023-05-16T15:16:20;43.42;6.16
71396;DHT22;59888;55.814;37.132;2023-05-16T15:18:46;43.22;6.15
71396;DHT22;59888;55.814;37.132;2023-05-16T15:21:12;42.60;5.98
71396;DHT22;59888;55.814;37.132;2023-05-16T15:23:38;42.01;6.21
71396;DHT22;59888;55.814;37.132;2023-05-16T15:26:04;41.76;6.16
71396;DHT22;59888;55.814;37.132;2023-05-16T15:28:31;41.66;6.23
71396;DHT22;59888;55.814;37.132;2023-05-16T15:30:56;41.67;6.44
71396;DHT22;59888;55.814;37.132;2023-05-16T15:33:23;41.54;6.36
71396;DHT22;59888;55.814;37.132;2023-05-16T15:35:48;40.82;6.36
71396;DHT22;59888;55.814;37.132;2023-05-16T15:38:14;40.30;6.63
71396;DHT22;59888;55.814;37.132;2023-05-16T15:40:40;40.28;6.84